This is the latest recevied weather packets stored in our database for station/object N0AOL-13. If no packets are shown the sender has not sent any weather packets the latest 10 day(s).
| Time | Temp. | Humidity | Pressure | Rain* | Wind** | Luminosity | Snow |
|---|---|---|---|---|---|---|---|
| 1777555807 | 0.56° C | 77% | 1022.3 hPa | 0 mm | - | 229 W/m² | - |
| 1777550420 | -3.33° C | 85% | 1022 hPa | 0 mm | - | 9 W/m² | - |
| 1777547720 | -2.78° C | 81% | 1022.2 hPa | 0 mm | - | 0 W/m² | - |
| 1777538726 | -1.11° C | 76% | 1022.3 hPa | 0 mm | - | 0 W/m² | - |
| 1777537821 | -0.56° C | 75% | 1022.4 hPa | 0 mm | - | 0 W/m² | - |
| 1777532419 | 0.56° C | 73% | 1022.7 hPa | 0 mm | - | 0 W/m² | - |
| 1777526120 | 3.33° C | 62% | 1022.2 hPa | 0 mm | - | 0 W/m² | - |
| 1777524321 | 3.33° C | 63% | 1022.1 hPa | 0 mm | - | 0 W/m² | - |
| 1777520716 | 5.56° C | 55% | 1021.8 hPa | 0 mm | - | 0 W/m² | - |
| 1777519820 | 6.11° C | 52% | 1021.7 hPa | 0 mm | - | 0 W/m² | - |
| 1777513522 | 8.89° C | 49% | 1019.6 hPa | 0 mm | - | 9 W/m² | - |
| 1777506321 | 12.22° C | 44% | 1018.6 hPa | 0 mm | - | 343 W/m² | - |
| 1777504520 | 12.22° C | 49% | 1018.6 hPa | 0 mm | - | 543 W/m² | - |
| 1777500922 | 12.78° C | 42% | 1018.3 hPa | 0 mm | - | 733 W/m² | - |
| 1777497322 | 12.78° C | 54% | 1018.2 hPa | 0 mm | - | 376 W/m² | - |
| 1777494622 | 13.33° C | 39% | 1017.8 hPa | 0 mm | - | 445 W/m² | - |
| 1777486522 | 5.56° C | 80% | 1019.4 hPa | 1.52 mm | - | 141 W/m² | - |
| 1777480222 | 11.67° C | 46% | 1018.9 hPa | 0 mm | - | 158 W/m² | - |
| 1777475724 | 11.11° C | 54% | 1018.8 hPa | 0 mm | - | 445 W/m² | - |
| 1777473932 | 10° C | 60% | 1019 hPa | 0 mm | - | 436 W/m² | - |
| 1777469424 | 6.11° C | 74% | 1019.1 hPa | 0.25 mm | - | 53 W/m² | - |
| 1777467625 | 3.33° C | 84% | 1018.8 hPa | 0 mm | - | 63 W/m² | - |
| 1777466725 | 1.67° C | 91% | 1018.7 hPa | 0 mm | - | 42 W/m² | - |
| 1777464936 | 0° C | 92% | 1018.6 hPa | 0 mm | - | 14 W/m² | - |
| 1777456824 | -0.56° C | 93% | 1018.8 hPa | 0 mm | - | 0 W/m² | - |
* Rain latest hour (hover to see other rain measurements)
** Current wind speed in m/s (hover to see current wind gust speed)